Terminal Aerodrome Forecast
Issued by NWS

Home | Current Version | Previous Version | Text Only | Print | Product List | Glossary On
Versions: 1 2 3 4 5 6 7 8 9 10 11 12 13 14 15 16 17 18 19 20 21 22 23 24 25 26 27 28
000
FTUS43 KDMX 251727
TAFMCW
TAF
KMCW 251727Z 2518/2618 16014G25KT P6SM SCT050 SCT150
     FM260000 15005KT P6SM FEW050
     FM260800 33006KT 3SM BR SCT250
     FM261000 VRB03KT 2SM BR SCT010
     FM261300 05005KT P6SM SCT030 SCT100=

USA.gov is the U.S. government's official web portal to all federal, state and local government web resources and services.